sensor_id;sensor_type;location;lat;lon;timestamp;P1;durP1;ratioP1;P2;durP2;ratioP2
50417;SDS011;36346;48.280;14.292;2022-10-17T00:01:04;10.20;;;10.20;;
50417;SDS011;36346;48.280;14.292;2022-10-17T00:03:33;10.67;;;10.65;;
50417;SDS011;36346;48.280;14.292;2022-10-17T00:06:04;10.41;;;10.39;;
50417;SDS011;36346;48.280;14.292;2022-10-17T00:08:37;10.61;;;10.56;;
50417;SDS011;36346;48.280;14.292;2022-10-17T00:11:10;10.97;;;10.88;;
50417;SDS011;36346;48.280;14.292;2022-10-17T00:13:41;11.04;;;10.98;;
50417;SDS011;36346;48.280;14.292;2022-10-17T00:16:09;11.53;;;11.50;;
50417;SDS011;36346;48.280;14.292;2022-10-17T00:18:36;12.54;;;12.37;;
50417;SDS011;36346;48.280;14.292;2022-10-17T00:21:05;11.69;;;11.65;;
50417;SDS011;36346;48.280;14.292;2022-10-17T00:23:33;12.07;;;12.00;;
50417;SDS011;36346;48.280;14.292;2022-10-17T00:26:03;12.58;;;12.54;;
50417;SDS011;36346;48.280;14.292;2022-10-17T00:28:32;12.35;;;12.32;;
50417;SDS011;36346;48.280;14.292;2022-10-17T00:31:01;12.32;;;12.29;;
50417;SDS011;36346;48.280;14.292;2022-10-17T00:33:32;11.90;;;11.90;;
50417;SDS011;36346;48.280;14.292;2022-10-17T00:36:05;11.57;;;11.53;;
50417;SDS011;36346;48.280;14.292;2022-10-17T00:38:35;11.49;;;11.48;;
50417;SDS011;36346;48.280;14.292;2022-10-17T00:41:04;11.47;;;11.44;;
50417;SDS011;36346;48.280;14.292;2022-10-17T00:47:05;11.28;;;11.27;;
50417;SDS011;36346;48.280;14.292;2022-10-17T00:49:38;11.47;;;11.45;;
50417;SDS011;36346;48.280;14.292;2022-10-17T00:52:07;11.65;;;11.63;;
50417;SDS011;36346;48.280;14.292;2022-10-17T00:54:44;11.70;;;11.70;;
50417;SDS011;36346;48.280;14.292;2022-10-17T00:57:15;11.38;;;11.35;;
50417;SDS011;36346;48.280;14.292;2022-10-17T00:59:45;11.63;;;11.62;;
50417;SDS011;36346;48.280;14.292;2022-10-17T01:02:19;11.01;;;11.00;;
50417;SDS011;36346;48.280;14.292;2022-10-17T01:04:50;11.13;;;11.13;;
50417;SDS011;36346;48.280;14.292;2022-10-17T01:07:21;10.76;;;10.75;;
50417;SDS011;36346;48.280;14.292;2022-10-17T01:09:50;10.80;;;10.78;;
50417;SDS011;36346;48.280;14.292;2022-10-17T01:12:25;10.64;;;10.63;;
50417;SDS011;36346;48.280;14.292;2022-10-17T01:31:47;11.02;;;11.02;;
50417;SDS011;36346;48.280;14.292;2022-10-17T01:34:30;10.73;;;10.70;;
50417;SDS011;36346;48.280;14.292;2022-10-17T01:37:05;11.24;;;11.16;;
50417;SDS011;36346;48.280;14.292;2022-10-17T01:40:06;11.09;;;11.02;;
50417;SDS011;36346;48.280;14.292;2022-10-17T01:45:14;10.54;;;10.50;;
50417;SDS011;36346;48.280;14.292;2022-10-17T01:47:45;10.20;;;10.19;;
50417;SDS011;36346;48.280;14.292;2022-10-17T01:50:38;10.13;;;10.13;;
50417;SDS011;36346;48.280;14.292;2022-10-17T01:53:07;9.81;;;9.81;;
50417;SDS011;36346;48.280;14.292;2022-10-17T01:55:42;9.77;;;9.75;;
50417;SDS011;36346;48.280;14.292;2022-10-17T01:58:15;9.63;;;9.58;;
50417;SDS011;36346;48.280;14.292;2022-10-17T02:01:08;9.62;;;9.61;;
50417;SDS011;36346;48.280;14.292;2022-10-17T02:03:39;9.46;;;9.46;;
50417;SDS011;36346;48.280;14.292;2022-10-17T02:06:10;10.10;;;10.08;;
50417;SDS011;36346;48.280;14.292;2022-10-17T02:08:48;10.33;;;10.30;;
50417;SDS011;36346;48.280;14.292;2022-10-17T02:11:17;9.96;;;9.96;;
50417;SDS011;36346;48.280;14.292;2022-10-17T02:14:02;9.63;;;9.63;;
50417;SDS011;36346;48.280;14.292;2022-10-17T02:19:31;9.53;;;9.48;;
50417;SDS011;36346;48.280;14.292;2022-10-17T02:24:59;9.81;;;9.79;;
50417;SDS011;36346;48.280;14.292;2022-10-17T02:30:36;9.59;;;9.54;;
50417;SDS011;36346;48.280;14.292;2022-10-17T02:33:15;9.32;;;9.32;;
50417;SDS011;36346;48.280;14.292;2022-10-17T02:35:46;9.58;;;9.58;;
50417;SDS011;36346;48.280;14.292;2022-10-17T02:38:19;9.30;;;9.26;;
50417;SDS011;36346;48.280;14.292;2022-10-17T02:40:50;9.04;;;9.02;;
50417;SDS011;36346;48.280;14.292;2022-10-17T02:43:20;9.26;;;9.25;;
50417;SDS011;36346;48.280;14.292;2022-10-17T02:45:51;9.68;;;9.68;;
50417;SDS011;36346;48.280;14.292;2022-10-17T02:53:34;10.28;;;10.28;;
50417;SDS011;36346;48.280;14.292;2022-10-17T02:56:15;10.76;;;10.76;;
50417;SDS011;36346;48.280;14.292;2022-10-17T02:58:47;11.10;;;11.06;;
50417;SDS011;36346;48.280;14.292;2022-10-17T03:01:20;10.82;;;10.75;;
50417;SDS011;36346;48.280;14.292;2022-10-17T03:03:48;11.44;;;11.39;;
50417;SDS011;36346;48.280;14.292;2022-10-17T03:06:16;11.56;;;11.53;;
50417;SDS011;36346;48.280;14.292;2022-10-17T03:08:45;11.80;;;11.77;;
50417;SDS011;36346;48.280;14.292;2022-10-17T03:11:13;13.15;;;13.08;;
50417;SDS011;36346;48.280;14.292;2022-10-17T03:13:42;13.21;;;13.19;;
50417;SDS011;36346;48.280;14.292;2022-10-17T03:16:10;12.96;;;12.94;;
50417;SDS011;36346;48.280;14.292;2022-10-17T03:18:38;13.68;;;13.64;;
50417;SDS011;36346;48.280;14.292;2022-10-17T03:21:07;13.84;;;13.76;;
50417;SDS011;36346;48.280;14.292;2022-10-17T03:23:35;13.66;;;13.59;;
50417;SDS011;36346;48.280;14.292;2022-10-17T03:26:05;13.87;;;13.78;;
50417;SDS011;36346;48.280;14.292;2022-10-17T03:28:34;14.50;;;14.43;;
50417;SDS011;36346;48.280;14.292;2022-10-17T03:31:09;14.15;;;14.10;;
50417;SDS011;36346;48.280;14.292;2022-10-17T03:33:40;14.56;;;14.50;;
50417;SDS011;36346;48.280;14.292;2022-10-17T03:36:09;16.05;;;15.93;;
50417;SDS011;36346;48.280;14.292;2022-10-17T03:38:40;16.34;;;16.22;;
50417;SDS011;36346;48.280;14.292;2022-10-17T03:41:09;16.65;;;16.62;;
50417;SDS011;36346;48.280;14.292;2022-10-17T03:43:39;18.04;;;17.97;;
50417;SDS011;36346;48.280;14.292;2022-10-17T03:46:08;17.06;;;16.96;;
50417;SDS011;36346;48.280;14.292;2022-10-17T03:48:37;17.13;;;16.97;;
50417;SDS011;36346;48.280;14.292;2022-10-17T03:51:07;17.46;;;17.35;;
50417;SDS011;36346;48.280;14.292;2022-10-17T03:53:46;17.66;;;17.44;;
50417;SDS011;36346;48.280;14.292;2022-10-17T03:56:16;17.79;;;17.77;;
50417;SDS011;36346;48.280;14.292;2022-10-17T03:58:53;18.04;;;17.88;;
50417;SDS011;36346;48.280;14.292;2022-10-17T04:01:22;17.86;;;17.72;;
50417;SDS011;36346;48.280;14.292;2022-10-17T04:03:51;18.79;;;18.74;;
50417;SDS011;36346;48.280;14.292;2022-10-17T04:06:21;19.29;;;19.12;;
50417;SDS011;36346;48.280;14.292;2022-10-17T04:08:49;19.63;;;19.53;;
50417;SDS011;36346;48.280;14.292;2022-10-17T04:11:37;20.28;;;20.06;;
50417;SDS011;36346;48.280;14.292;2022-10-17T04:14:06;20.29;;;20.14;;
50417;SDS011;36346;48.280;14.292;2022-10-17T04:16:37;20.23;;;20.17;;
50417;SDS011;36346;48.280;14.292;2022-10-17T04:19:12;20.76;;;20.57;;
50417;SDS011;36346;48.280;14.292;2022-10-17T04:21:44;19.98;;;19.88;;
50417;SDS011;36346;48.280;14.292;2022-10-17T04:24:13;19.54;;;19.33;;
50417;SDS011;36346;48.280;14.292;2022-10-17T04:27:01;19.58;;;19.45;;
50417;SDS011;36346;48.280;14.292;2022-10-17T04:29:32;20.88;;;20.76;;
50417;SDS011;36346;48.280;14.292;2022-10-17T04:32:09;20.52;;;20.31;;
50417;SDS011;36346;48.280;14.292;2022-10-17T04:34:47;19.54;;;19.31;;
50417;SDS011;36346;48.280;14.292;2022-10-17T04:37:17;19.39;;;19.24;;
50417;SDS011;36346;48.280;14.292;2022-10-17T04:39:47;19.34;;;19.26;;
50417;SDS011;36346;48.280;14.292;2022-10-17T04:42:15;19.47;;;19.40;;
50417;SDS011;36346;48.280;14.292;2022-10-17T04:44:43;21.28;;;21.14;;
50417;SDS011;36346;48.280;14.292;2022-10-17T04:47:13;21.71;;;21.46;;
50417;SDS011;36346;48.280;14.292;2022-10-17T04:49:42;22.66;;;22.59;;
50417;SDS011;36346;48.280;14.292;2022-10-17T04:52:11;23.76;;;23.71;;
50417;SDS011;36346;48.280;14.292;2022-10-17T04:54:43;25.25;;;25.03;;
50417;SDS011;36346;48.280;14.292;2022-10-17T04:57:13;37.00;;;36.39;;
50417;SDS011;36346;48.280;14.292;2022-10-17T04:59:48;39.81;;;39.26;;
50417;SDS011;36346;48.280;14.292;2022-10-17T05:02:45;39.90;;;39.29;;
50417;SDS011;36346;48.280;14.292;2022-10-17T05:05:13;41.26;;;40.69;;
50417;SDS011;36346;48.280;14.292;2022-10-17T05:07:44;42.74;;;42.32;;
50417;SDS011;36346;48.280;14.292;2022-10-17T05:10:16;43.44;;;42.89;;
50417;SDS011;36346;48.280;14.292;2022-10-17T05:12:47;41.45;;;41.13;;
50417;SDS011;36346;48.280;14.292;2022-10-17T05:15:17;41.23;;;40.79;;
50417;SDS011;36346;48.280;14.292;2022-10-17T05:17:45;41.86;;;41.56;;
50417;SDS011;36346;48.280;14.292;2022-10-17T05:20:13;41.48;;;41.18;;
50417;SDS011;36346;48.280;14.292;2022-10-17T05:22:41;45.00;;;44.37;;
50417;SDS011;36346;48.280;14.292;2022-10-17T05:25:11;45.56;;;44.88;;
50417;SDS011;36346;48.280;14.292;2022-10-17T05:27:39;44.50;;;43.87;;
50417;SDS011;36346;48.280;14.292;2022-10-17T05:30:08;41.52;;;41.05;;
50417;SDS011;36346;48.280;14.292;2022-10-17T05:32:39;40.38;;;39.99;;
50417;SDS011;36346;48.280;14.292;2022-10-17T05:35:08;40.53;;;40.18;;
50417;SDS011;36346;48.280;14.292;2022-10-17T05:37:37;41.26;;;40.96;;
50417;SDS011;36346;48.280;14.292;2022-10-17T05:40:06;40.98;;;40.46;;
50417;SDS011;36346;48.280;14.292;2022-10-17T05:42:34;41.49;;;41.03;;
50417;SDS011;36346;48.280;14.292;2022-10-17T05:45:03;42.33;;;41.96;;
50417;SDS011;36346;48.280;14.292;2022-10-17T05:47:32;43.77;;;43.15;;
50417;SDS011;36346;48.280;14.292;2022-10-17T05:50:00;43.82;;;43.17;;
50417;SDS011;36346;48.280;14.292;2022-10-17T05:52:37;42.68;;;42.28;;
50417;SDS011;36346;48.280;14.292;2022-10-17T05:55:10;42.29;;;41.86;;
50417;SDS011;36346;48.280;14.292;2022-10-17T05:57:39;41.65;;;41.24;;
50417;SDS011;36346;48.280;14.292;2022-10-17T06:00:12;40.47;;;40.09;;
50417;SDS011;36346;48.280;14.292;2022-10-17T06:02:48;41.20;;;40.49;;
50417;SDS011;36346;48.280;14.292;2022-10-17T06:05:17;41.10;;;40.49;;
50417;SDS011;36346;48.280;14.292;2022-10-17T06:07:46;40.41;;;40.06;;
50417;SDS011;36346;48.280;14.292;2022-10-17T06:10:20;38.68;;;38.28;;
50417;SDS011;36346;48.280;14.292;2022-10-17T06:12:48;38.71;;;38.24;;
50417;SDS011;36346;48.280;14.292;2022-10-17T06:15:16;38.09;;;37.73;;
50417;SDS011;36346;48.280;14.292;2022-10-17T06:17:49;37.53;;;36.95;;
50417;SDS011;36346;48.280;14.292;2022-10-17T06:20:17;36.87;;;36.44;;
50417;SDS011;36346;48.280;14.292;2022-10-17T06:22:45;37.20;;;36.68;;
50417;SDS011;36346;48.280;14.292;2022-10-17T06:25:21;36.57;;;36.25;;
50417;SDS011;36346;48.280;14.292;2022-10-17T06:27:49;35.60;;;35.32;;
50417;SDS011;36346;48.280;14.292;2022-10-17T06:30:17;34.88;;;34.44;;
50417;SDS011;36346;48.280;14.292;2022-10-17T06:32:45;36.50;;;35.99;;
50417;SDS011;36346;48.280;14.292;2022-10-17T06:35:13;36.91;;;36.29;;
50417;SDS011;36346;48.280;14.292;2022-10-17T06:37:41;37.38;;;36.95;;
50417;SDS011;36346;48.280;14.292;2022-10-17T06:40:10;37.33;;;37.01;;
50417;SDS011;36346;48.280;14.292;2022-10-17T06:42:39;37.90;;;37.60;;
50417;SDS011;36346;48.280;14.292;2022-10-17T06:45:28;38.00;;;37.58;;
50417;SDS011;36346;48.280;14.292;2022-10-17T06:48:16;38.02;;;37.66;;
50417;SDS011;36346;48.280;14.292;2022-10-17T06:51:03;37.95;;;37.67;;
50417;SDS011;36346;48.280;14.292;2022-10-17T06:53:43;39.44;;;38.93;;
50417;SDS011;36346;48.280;14.292;2022-10-17T06:56:46;40.22;;;39.89;;
50417;SDS011;36346;48.280;14.292;2022-10-17T06:59:26;42.17;;;41.83;;
50417;SDS011;36346;48.280;14.292;2022-10-17T07:02:00;41.96;;;41.44;;
50417;SDS011;36346;48.280;14.292;2022-10-17T07:04:30;40.97;;;40.65;;
50417;SDS011;36346;48.280;14.292;2022-10-17T07:06:58;41.53;;;41.25;;
50417;SDS011;36346;48.280;14.292;2022-10-17T07:09:30;40.60;;;40.14;;
50417;SDS011;36346;48.280;14.292;2022-10-17T07:11:59;38.81;;;38.41;;
50417;SDS011;36346;48.280;14.292;2022-10-17T07:14:27;37.98;;;37.70;;
50417;SDS011;36346;48.280;14.292;2022-10-17T07:16:59;37.72;;;37.31;;
50417;SDS011;36346;48.280;14.292;2022-10-17T07:19:31;36.49;;;35.99;;
50417;SDS011;36346;48.280;14.292;2022-10-17T07:21:59;36.08;;;35.75;;
50417;SDS011;36346;48.280;14.292;2022-10-17T07:24:27;35.26;;;34.96;;
50417;SDS011;36346;48.280;14.292;2022-10-17T07:27:07;33.26;;;32.86;;
50417;SDS011;36346;48.280;14.292;2022-10-17T07:29:35;33.16;;;32.64;;
50417;SDS011;36346;48.280;14.292;2022-10-17T07:32:29;35.33;;;35.00;;
50417;SDS011;36346;48.280;14.292;2022-10-17T07:34:58;40.15;;;39.61;;
50417;SDS011;36346;48.280;14.292;2022-10-17T07:37:27;40.57;;;40.04;;
50417;SDS011;36346;48.280;14.292;2022-10-17T07:39:56;37.66;;;37.25;;
50417;SDS011;36346;48.280;14.292;2022-10-17T07:42:26;35.57;;;35.27;;
50417;SDS011;36346;48.280;14.292;2022-10-17T07:44:55;39.07;;;38.63;;
50417;SDS011;36346;48.280;14.292;2022-10-17T07:47:25;45.15;;;44.57;;
50417;SDS011;36346;48.280;14.292;2022-10-17T07:49:54;45.11;;;44.49;;
50417;SDS011;36346;48.280;14.292;2022-10-17T07:52:22;46.10;;;45.32;;
50417;SDS011;36346;48.280;14.292;2022-10-17T07:54:50;44.34;;;43.87;;
50417;SDS011;36346;48.280;14.292;2022-10-17T07:57:18;44.59;;;44.15;;
50417;SDS011;36346;48.280;14.292;2022-10-17T07:59:46;44.46;;;43.96;;
50417;SDS011;36346;48.280;14.292;2022-10-17T08:02:19;44.42;;;43.93;;
50417;SDS011;36346;48.280;14.292;2022-10-17T08:04:49;45.61;;;45.34;;
50417;SDS011;36346;48.280;14.292;2022-10-17T08:07:18;54.82;;;54.12;;
50417;SDS011;36346;48.280;14.292;2022-10-17T08:09:53;60.79;;;59.62;;
50417;SDS011;36346;48.280;14.292;2022-10-17T08:12:21;68.83;;;66.27;;
50417;SDS011;36346;48.280;14.292;2022-10-17T08:14:49;81.18;;;77.35;;
50417;SDS011;36346;48.280;14.292;2022-10-17T08:17:17;75.45;;;72.88;;
50417;SDS011;36346;48.280;14.292;2022-10-17T08:19:45;71.20;;;68.93;;
50417;SDS011;36346;48.280;14.292;2022-10-17T08:22:13;45.03;;;43.90;;
50417;SDS011;36346;48.280;14.292;2022-10-17T08:24:41;34.65;;;34.27;;
50417;SDS011;36346;48.280;14.292;2022-10-17T08:27:09;32.83;;;32.59;;
50417;SDS011;36346;48.280;14.292;2022-10-17T08:29:39;32.74;;;32.37;;
50417;SDS011;36346;48.280;14.292;2022-10-17T08:32:07;31.80;;;31.62;;
50417;SDS011;36346;48.280;14.292;2022-10-17T08:34:36;31.73;;;31.50;;
50417;SDS011;36346;48.280;14.292;2022-10-17T08:37:04;33.34;;;33.06;;
50417;SDS011;36346;48.280;14.292;2022-10-17T08:39:32;32.98;;;32.56;;
50417;SDS011;36346;48.280;14.292;2022-10-17T08:47:00;32.43;;;31.99;;
50417;SDS011;36346;48.280;14.292;2022-10-17T08:49:48;31.98;;;31.74;;
50417;SDS011;36346;48.280;14.292;2022-10-17T08:52:31;32.41;;;32.02;;
50417;SDS011;36346;48.280;14.292;2022-10-17T08:55:10;33.49;;;33.07;;
50417;SDS011;36346;48.280;14.292;2022-10-17T08:57:42;33.75;;;33.21;;
50417;SDS011;36346;48.280;14.292;2022-10-17T09:00:15;32.98;;;32.62;;
50417;SDS011;36346;48.280;14.292;2022-10-17T09:02:56;32.89;;;32.48;;
50417;SDS011;36346;48.280;14.292;2022-10-17T09:05:45;33.21;;;32.81;;
50417;SDS011;36346;48.280;14.292;2022-10-17T09:17:06;34.88;;;34.47;;
50417;SDS011;36346;48.280;14.292;2022-10-17T09:19:38;34.90;;;34.29;;
50417;SDS011;36346;48.280;14.292;2022-10-17T09:22:12;34.01;;;33.59;;
50417;SDS011;36346;48.280;14.292;2022-10-17T09:24:53;34.75;;;34.53;;
50417;SDS011;36346;48.280;14.292;2022-10-17T09:30:22;35.13;;;34.59;;
50417;SDS011;36346;48.280;14.292;2022-10-17T09:33:14;35.25;;;34.77;;
50417;SDS011;36346;48.280;14.292;2022-10-17T09:36:14;35.45;;;34.88;;
50417;SDS011;36346;48.280;14.292;2022-10-17T09:38:52;35.00;;;34.45;;
50417;SDS011;36346;48.280;14.292;2022-10-17T09:41:29;34.81;;;34.46;;
50417;SDS011;36346;48.280;14.292;2022-10-17T09:49:42;35.30;;;34.58;;
50417;SDS011;36346;48.280;14.292;2022-10-17T09:52:13;36.69;;;36.13;;
50417;SDS011;36346;48.280;14.292;2022-10-17T09:54:48;36.42;;;35.80;;
50417;SDS011;36346;48.280;14.292;2022-10-17T09:57:19;36.70;;;36.30;;
50417;SDS011;36346;48.280;14.292;2022-10-17T10:02:27;37.73;;;37.23;;
50417;SDS011;36346;48.280;14.292;2022-10-17T10:05:02;37.08;;;36.61;;
50417;SDS011;36346;48.280;14.292;2022-10-17T10:07:59;37.97;;;37.46;;
50417;SDS011;36346;48.280;14.292;2022-10-17T10:10:30;37.48;;;37.08;;
50417;SDS011;36346;48.280;14.292;2022-10-17T10:15:43;39.41;;;38.61;;
50417;SDS011;36346;48.280;14.292;2022-10-17T10:21:07;41.41;;;40.78;;
50417;SDS011;36346;48.280;14.292;2022-10-17T10:23:37;40.69;;;40.17;;
50417;SDS011;36346;48.280;14.292;2022-10-17T10:26:22;41.30;;;41.10;;
50417;SDS011;36346;48.280;14.292;2022-10-17T10:29:00;41.94;;;41.36;;
50417;SDS011;36346;48.280;14.292;2022-10-17T10:31:41;42.69;;;42.21;;
50417;SDS011;36346;48.280;14.292;2022-10-17T10:34:27;41.49;;;41.13;;
50417;SDS011;36346;48.280;14.292;2022-10-17T10:39:39;40.20;;;39.66;;
50417;SDS011;36346;48.280;14.292;2022-10-17T10:42:20;39.24;;;38.67;;
50417;SDS011;36346;48.280;14.292;2022-10-17T10:44:51;41.97;;;41.19;;
50417;SDS011;36346;48.280;14.292;2022-10-17T10:47:28;41.89;;;41.39;;
50417;SDS011;36346;48.280;14.292;2022-10-17T10:50:16;44.52;;;43.89;;
50417;SDS011;36346;48.280;14.292;2022-10-17T10:53:14;45.57;;;44.78;;
50417;SDS011;36346;48.280;14.292;2022-10-17T10:55:52;45.01;;;44.11;;
50417;SDS011;36346;48.280;14.292;2022-10-17T11:04:18;44.11;;;43.55;;
50417;SDS011;36346;48.280;14.292;2022-10-17T11:06:51;44.96;;;44.62;;
50417;SDS011;36346;48.280;14.292;2022-10-17T11:09:44;43.87;;;43.57;;
50417;SDS011;36346;48.280;14.292;2022-10-17T11:12:38;53.83;;;53.26;;
50417;SDS011;36346;48.280;14.292;2022-10-17T11:15:20;55.47;;;54.69;;
50417;SDS011;36346;48.280;14.292;2022-10-17T11:18:02;58.20;;;57.28;;
50417;SDS011;36346;48.280;14.292;2022-10-17T11:23:22;61.30;;;60.20;;
50417;SDS011;36346;48.280;14.292;2022-10-17T11:25:57;62.47;;;61.62;;
50417;SDS011;36346;48.280;14.292;2022-10-17T11:28:29;62.29;;;61.06;;
50417;SDS011;36346;48.280;14.292;2022-10-17T11:30:59;63.67;;;62.56;;
50417;SDS011;36346;48.280;14.292;2022-10-17T11:33:43;66.41;;;65.06;;
50417;SDS011;36346;48.280;14.292;2022-10-17T11:36:18;66.60;;;65.43;;
50417;SDS011;36346;48.280;14.292;2022-10-17T11:38:54;66.44;;;65.49;;
50417;SDS011;36346;48.280;14.292;2022-10-17T11:47:05;60.01;;;59.12;;
50417;SDS011;36346;48.280;14.292;2022-10-17T11:50:06;54.56;;;53.75;;
50417;SDS011;36346;48.280;14.292;2022-10-17T11:53:13;53.35;;;52.93;;
50417;SDS011;36346;48.280;14.292;2022-10-17T11:55:43;54.87;;;54.09;;
50417;SDS011;36346;48.280;14.292;2022-10-17T12:01:14;47.77;;;47.03;;
50417;SDS011;36346;48.280;14.292;2022-10-17T12:09:21;46.20;;;45.33;;
50417;SDS011;36346;48.280;14.292;2022-10-17T12:11:57;44.76;;;44.20;;
50417;SDS011;36346;48.280;14.292;2022-10-17T12:14:44;43.53;;;43.28;;
50417;SDS011;36346;48.280;14.292;2022-10-17T12:20:23;42.15;;;42.12;;
50417;SDS011;36346;48.280;14.292;2022-10-17T12:25:47;40.33;;;40.08;;
50417;SDS011;36346;48.280;14.292;2022-10-17T12:31:01;36.98;;;36.84;;
50417;SDS011;36346;48.280;14.292;2022-10-17T12:38:44;33.22;;;33.01;;
50417;SDS011;36346;48.280;14.292;2022-10-17T12:52:14;35.96;;;35.67;;
50417;SDS011;36346;48.280;14.292;2022-10-17T13:00:36;34.56;;;34.13;;
50417;SDS011;36346;48.280;14.292;2022-10-17T13:03:33;33.70;;;33.63;;
50417;SDS011;36346;48.280;14.292;2022-10-17T13:06:11;33.69;;;33.62;;
50417;SDS011;36346;48.280;14.292;2022-10-17T13:08:48;33.91;;;33.81;;
50417;SDS011;36346;48.280;14.292;2022-10-17T13:11:24;32.84;;;32.68;;
50417;SDS011;36346;48.280;14.292;2022-10-17T13:13:56;32.67;;;32.53;;
50417;SDS011;36346;48.280;14.292;2022-10-17T13:16:34;31.17;;;31.14;;
50417;SDS011;36346;48.280;14.292;2022-10-17T13:19:14;31.53;;;31.30;;
50417;SDS011;36346;48.280;14.292;2022-10-17T13:26:58;29.34;;;29.19;;
50417;SDS011;36346;48.280;14.292;2022-10-17T13:29:27;28.73;;;28.65;;
50417;SDS011;36346;48.280;14.292;2022-10-17T13:31:58;30.45;;;30.42;;
50417;SDS011;36346;48.280;14.292;2022-10-17T13:34:31;30.68;;;30.50;;
50417;SDS011;36346;48.280;14.292;2022-10-17T13:37:01;31.25;;;31.20;;
50417;SDS011;36346;48.280;14.292;2022-10-17T13:39:37;34.42;;;33.99;;
50417;SDS011;36346;48.280;14.292;2022-10-17T13:42:35;32.24;;;32.08;;
50417;SDS011;36346;48.280;14.292;2022-10-17T13:45:15;33.69;;;33.35;;
50417;SDS011;36346;48.280;14.292;2022-10-17T13:47:47;33.56;;;33.25;;
50417;SDS011;36346;48.280;14.292;2022-10-17T13:53:16;35.65;;;35.14;;
50417;SDS011;36346;48.280;14.292;2022-10-17T13:58:47;34.09;;;33.45;;
50417;SDS011;36346;48.280;14.292;2022-10-17T14:01:16;35.17;;;34.71;;
50417;SDS011;36346;48.280;14.292;2022-10-17T14:03:46;34.32;;;34.01;;
50417;SDS011;36346;48.280;14.292;2022-10-17T14:06:24;34.66;;;34.27;;
50417;SDS011;36346;48.280;14.292;2022-10-17T14:11:39;34.67;;;34.25;;
50417;SDS011;36346;48.280;14.292;2022-10-17T14:14:19;33.77;;;33.62;;
50417;SDS011;36346;48.280;14.292;2022-10-17T14:16:50;34.71;;;34.35;;
50417;SDS011;36346;48.280;14.292;2022-10-17T14:19:26;34.29;;;33.94;;
50417;SDS011;36346;48.280;14.292;2022-10-17T14:22:13;40.99;;;40.41;;
50417;SDS011;36346;48.280;14.292;2022-10-17T14:24:44;40.89;;;40.30;;
50417;SDS011;36346;48.280;14.292;2022-10-17T14:30:31;33.71;;;33.34;;
50417;SDS011;36346;48.280;14.292;2022-10-17T14:35:54;33.97;;;33.58;;
50417;SDS011;36346;48.280;14.292;2022-10-17T14:38:24;33.55;;;33.31;;
50417;SDS011;36346;48.280;14.292;2022-10-17T14:41:04;33.63;;;33.12;;
50417;SDS011;36346;48.280;14.292;2022-10-17T14:43:59;32.98;;;32.65;;
50417;SDS011;36346;48.280;14.292;2022-10-17T14:46:31;31.31;;;31.01;;
50417;SDS011;36346;48.280;14.292;2022-10-17T14:49:23;33.45;;;33.12;;
50417;SDS011;36346;48.280;14.292;2022-10-17T14:52:08;36.83;;;36.49;;
50417;SDS011;36346;48.280;14.292;2022-10-17T14:54:44;39.03;;;38.54;;
50417;SDS011;36346;48.280;14.292;2022-10-17T14:59:42;35.83;;;35.38;;
50417;SDS011;36346;48.280;14.292;2022-10-17T15:02:24;35.46;;;34.83;;
50417;SDS011;36346;48.280;14.292;2022-10-17T15:04:57;35.08;;;34.49;;
50417;SDS011;36346;48.280;14.292;2022-10-17T15:07:25;34.50;;;34.06;;
50417;SDS011;36346;48.280;14.292;2022-10-17T15:09:52;34.06;;;33.50;;
50417;SDS011;36346;48.280;14.292;2022-10-17T15:12:21;36.24;;;35.63;;
50417;SDS011;36346;48.280;14.292;2022-10-17T15:14:52;34.37;;;34.15;;
50417;SDS011;36346;48.280;14.292;2022-10-17T15:17:22;35.38;;;34.94;;
50417;SDS011;36346;48.280;14.292;2022-10-17T15:19:55;34.36;;;33.79;;
50417;SDS011;36346;48.280;14.292;2022-10-17T15:22:24;34.69;;;34.41;;
50417;SDS011;36346;48.280;14.292;2022-10-17T15:24:52;37.34;;;36.80;;
50417;SDS011;36346;48.280;14.292;2022-10-17T15:27:23;40.39;;;39.81;;
50417;SDS011;36346;48.280;14.292;2022-10-17T15:29:52;37.81;;;37.44;;
50417;SDS011;36346;48.280;14.292;2022-10-17T15:32:20;36.18;;;35.90;;
50417;SDS011;36346;48.280;14.292;2022-10-17T15:34:48;37.11;;;36.54;;
50417;SDS011;36346;48.280;14.292;2022-10-17T15:37:23;38.07;;;37.67;;
50417;SDS011;36346;48.280;14.292;2022-10-17T15:39:53;37.05;;;36.59;;
50417;SDS011;36346;48.280;14.292;2022-10-17T15:42:22;50.49;;;49.83;;
50417;SDS011;36346;48.280;14.292;2022-10-17T15:44:55;43.58;;;43.00;;
50417;SDS011;36346;48.280;14.292;2022-10-17T15:47:27;38.99;;;38.47;;
50417;SDS011;36346;48.280;14.292;2022-10-17T15:50:00;38.10;;;37.65;;
50417;SDS011;36346;48.280;14.292;2022-10-17T15:52:29;36.69;;;36.22;;
50417;SDS011;36346;48.280;14.292;2022-10-17T15:54:58;37.54;;;37.21;;
50417;SDS011;36346;48.280;14.292;2022-10-17T15:57:32;38.43;;;37.90;;
50417;SDS011;36346;48.280;14.292;2022-10-17T16:00:05;37.73;;;37.44;;
50417;SDS011;36346;48.280;14.292;2022-10-17T16:02:43;39.91;;;39.52;;
50417;SDS011;36346;48.280;14.292;2022-10-17T16:05:16;39.28;;;38.96;;
50417;SDS011;36346;48.280;14.292;2022-10-17T16:07:50;38.06;;;37.51;;
50417;SDS011;36346;48.280;14.292;2022-10-17T16:10:19;37.02;;;36.64;;
50417;SDS011;36346;48.280;14.292;2022-10-17T16:12:48;36.81;;;36.47;;
50417;SDS011;36346;48.280;14.292;2022-10-17T16:15:21;37.93;;;37.50;;
50417;SDS011;36346;48.280;14.292;2022-10-17T16:17:52;38.50;;;38.10;;
50417;SDS011;36346;48.280;14.292;2022-10-17T16:20:22;38.46;;;37.86;;
50417;SDS011;36346;48.280;14.292;2022-10-17T16:22:51;38.69;;;38.20;;
50417;SDS011;36346;48.280;14.292;2022-10-17T16:25:26;39.35;;;38.82;;
50417;SDS011;36346;48.280;14.292;2022-10-17T16:27:57;39.22;;;38.62;;
50417;SDS011;36346;48.280;14.292;2022-10-17T16:30:28;39.33;;;38.99;;
50417;SDS011;36346;48.280;14.292;2022-10-17T16:32:57;39.45;;;39.03;;
50417;SDS011;36346;48.280;14.292;2022-10-17T16:35:26;37.98;;;37.47;;
50417;SDS011;36346;48.280;14.292;2022-10-17T16:38:04;37.26;;;36.84;;
50417;SDS011;36346;48.280;14.292;2022-10-17T16:40:33;38.91;;;38.51;;
50417;SDS011;36346;48.280;14.292;2022-10-17T16:43:05;40.35;;;40.05;;
50417;SDS011;36346;48.280;14.292;2022-10-17T16:45:34;39.72;;;39.32;;
50417;SDS011;36346;48.280;14.292;2022-10-17T16:48:02;39.44;;;38.94;;
50417;SDS011;36346;48.280;14.292;2022-10-17T16:50:31;39.93;;;39.43;;
50417;SDS011;36346;48.280;14.292;2022-10-17T16:53:02;41.15;;;40.76;;
50417;SDS011;36346;48.280;14.292;2022-10-17T16:55:31;39.90;;;39.41;;
50417;SDS011;36346;48.280;14.292;2022-10-17T16:57:58;41.19;;;40.68;;
50417;SDS011;36346;48.280;14.292;2022-10-17T17:00:27;39.49;;;39.19;;
50417;SDS011;36346;48.280;14.292;2022-10-17T17:02:56;40.22;;;39.71;;
50417;SDS011;36346;48.280;14.292;2022-10-17T17:05:24;41.02;;;40.49;;
50417;SDS011;36346;48.280;14.292;2022-10-17T17:07:52;41.50;;;40.93;;
50417;SDS011;36346;48.280;14.292;2022-10-17T17:10:22;41.30;;;40.74;;
50417;SDS011;36346;48.280;14.292;2022-10-17T17:12:50;41.96;;;41.22;;